Terminal Aerodrome Forecast
Issued by NWS

Home | Current Version | Previous Version | Text Only | Print | Product List | Glossary On
Versions: 1 2 3 4 5 6 7 8 9 10 11 12 13 14 15 16 17 18 19 20 21
000
FTUS43 KGRR 240540
TAFAZO
TAF
KAZO 240540Z 2406/2506 35007KT 6SM -RA BR OVC005
     FM241700 30008KT 4SM BR OVC010
     FM250000 26002KT 5SM BR OVC025=

USA.gov is the U.S. government's official web portal to all federal, state and local government web resources and services.